sensor_id;sensor_type;location;lat;lon;timestamp;P1;durP1;ratioP1;P2;durP2;ratioP2
52041;SDS011;38052;45.944;13.624;2023-02-11T00:02:07;32.00;;;18.00;;
52041;SDS011;38052;45.944;13.624;2023-02-11T00:04:33;32.22;;;18.83;;
52041;SDS011;38052;45.944;13.624;2023-02-11T00:07:00;32.38;;;18.77;;
52041;SDS011;38052;45.944;13.624;2023-02-11T00:09:26;32.05;;;19.05;;
52041;SDS011;38052;45.944;13.624;2023-02-11T00:11:53;34.08;;;19.13;;
52041;SDS011;38052;45.944;13.624;2023-02-11T00:14:19;36.10;;;20.85;;
52041;SDS011;38052;45.944;13.624;2023-02-11T00:16:46;31.90;;;19.73;;
52041;SDS011;38052;45.944;13.624;2023-02-11T00:19:13;32.17;;;18.08;;
52041;SDS011;38052;45.944;13.624;2023-02-11T00:21:39;27.33;;;15.80;;
52041;SDS011;38052;45.944;13.624;2023-02-11T00:24:06;28.80;;;16.13;;
52041;SDS011;38052;45.944;13.624;2023-02-11T00:26:34;26.40;;;16.20;;
52041;SDS011;38052;45.944;13.624;2023-02-11T00:29:00;27.75;;;16.20;;
52041;SDS011;38052;45.944;13.624;2023-02-11T00:31:27;27.10;;;15.35;;
52041;SDS011;38052;45.944;13.624;2023-02-11T00:33:53;30.75;;;16.13;;
52041;SDS011;38052;45.944;13.624;2023-02-11T00:36:21;26.08;;;15.63;;
52041;SDS011;38052;45.944;13.624;2023-02-11T00:38:48;26.70;;;15.38;;
52041;SDS011;38052;45.944;13.624;2023-02-11T00:41:14;25.02;;;14.23;;
52041;SDS011;38052;45.944;13.624;2023-02-11T00:43:41;28.55;;;16.02;;
52041;SDS011;38052;45.944;13.624;2023-02-11T00:46:07;22.88;;;13.45;;
52041;SDS011;38052;45.944;13.624;2023-02-11T00:48:33;26.35;;;14.18;;
52041;SDS011;38052;45.944;13.624;2023-02-11T00:51:00;25.08;;;14.07;;
52041;SDS011;38052;45.944;13.624;2023-02-11T00:53:28;25.10;;;14.10;;
52041;SDS011;38052;45.944;13.624;2023-02-11T00:55:54;22.73;;;14.32;;
52041;SDS011;38052;45.944;13.624;2023-02-11T00:58:20;24.17;;;13.52;;
52041;SDS011;38052;45.944;13.624;2023-02-11T01:00:47;19.52;;;11.93;;
52041;SDS011;38052;45.944;13.624;2023-02-11T01:06:17;19.63;;;10.48;;
52041;SDS011;38052;45.944;13.624;2023-02-11T01:08:44;18.73;;;10.93;;
52041;SDS011;38052;45.944;13.624;2023-02-11T01:11:11;19.33;;;11.35;;
52041;SDS011;38052;45.944;13.624;2023-02-11T01:13:38;21.27;;;11.07;;
52041;SDS011;38052;45.944;13.624;2023-02-11T01:16:05;20.08;;;10.85;;
52041;SDS011;38052;45.944;13.624;2023-02-11T01:18:32;19.15;;;11.57;;
52041;SDS011;38052;45.944;13.624;2023-02-11T01:20:58;19.60;;;10.85;;
52041;SDS011;38052;45.944;13.624;2023-02-11T01:23:25;16.48;;;10.68;;
52041;SDS011;38052;45.944;13.624;2023-02-11T01:25:52;19.50;;;9.85;;
52041;SDS011;38052;45.944;13.624;2023-02-11T01:28:22;16.60;;;10.15;;
52041;SDS011;38052;45.944;13.624;2023-02-11T01:30:49;17.73;;;10.57;;
52041;SDS011;38052;45.944;13.624;2023-02-11T01:33:16;18.80;;;10.40;;
52041;SDS011;38052;45.944;13.624;2023-02-11T01:35:43;19.92;;;11.02;;
52041;SDS011;38052;45.944;13.624;2023-02-11T01:38:14;15.68;;;9.27;;
52041;SDS011;38052;45.944;13.624;2023-02-11T01:40:45;16.80;;;8.80;;
52041;SDS011;38052;45.944;13.624;2023-02-11T01:43:11;17.88;;;10.18;;
52041;SDS011;38052;45.944;13.624;2023-02-11T01:48:08;20.77;;;10.80;;
52041;SDS011;38052;45.944;13.624;2023-02-11T01:50:36;15.30;;;9.98;;
52041;SDS011;38052;45.944;13.624;2023-02-11T01:53:03;20.80;;;9.05;;
52041;SDS011;38052;45.944;13.624;2023-02-11T01:55:47;15.57;;;9.55;;
52041;SDS011;38052;45.944;13.624;2023-02-11T01:58:32;15.15;;;8.73;;
52041;SDS011;38052;45.944;13.624;2023-02-11T02:01:00;17.63;;;9.18;;
52041;SDS011;38052;45.944;13.624;2023-02-11T02:03:29;19.92;;;9.63;;
52041;SDS011;38052;45.944;13.624;2023-02-11T02:05:58;18.80;;;8.35;;
52041;SDS011;38052;45.944;13.624;2023-02-11T02:10:53;19.58;;;10.27;;
52041;SDS011;38052;45.944;13.624;2023-02-11T02:13:23;19.23;;;9.52;;
52041;SDS011;38052;45.944;13.624;2023-02-11T02:15:56;14.07;;;9.00;;
52041;SDS011;38052;45.944;13.624;2023-02-11T02:21:28;18.13;;;9.40;;
52041;SDS011;38052;45.944;13.624;2023-02-11T02:24:12;16.17;;;9.52;;
52041;SDS011;38052;45.944;13.624;2023-02-11T02:27:03;13.00;;;8.60;;
52041;SDS011;38052;45.944;13.624;2023-02-11T02:37:23;18.60;;;8.68;;
52041;SDS011;38052;45.944;13.624;2023-02-11T02:39:52;16.20;;;8.50;;
52041;SDS011;38052;45.944;13.624;2023-02-11T02:42:19;13.70;;;7.95;;
52041;SDS011;38052;45.944;13.624;2023-02-11T02:44:49;13.82;;;7.80;;
52041;SDS011;38052;45.944;13.624;2023-02-11T02:47:17;15.38;;;9.13;;
52041;SDS011;38052;45.944;13.624;2023-02-11T02:49:43;17.13;;;8.95;;
52041;SDS011;38052;45.944;13.624;2023-02-11T02:57:14;16.65;;;8.52;;
52041;SDS011;38052;45.944;13.624;2023-02-11T03:02:26;14.75;;;9.02;;
52041;SDS011;38052;45.944;13.624;2023-02-11T03:05:37;18.42;;;10.13;;
52041;SDS011;38052;45.944;13.624;2023-02-11T03:07:47;14.40;;;8.45;;
52041;SDS011;38052;45.944;13.624;2023-02-11T03:10:18;16.05;;;9.32;;
52041;SDS011;38052;45.944;13.624;2023-02-11T03:12:44;15.85;;;9.32;;
52041;SDS011;38052;45.944;13.624;2023-02-11T03:15:11;13.88;;;9.02;;
52041;SDS011;38052;45.944;13.624;2023-02-11T03:17:39;14.85;;;9.07;;
52041;SDS011;38052;45.944;13.624;2023-02-11T03:20:06;13.60;;;7.45;;
52041;SDS011;38052;45.944;13.624;2023-02-11T03:22:42;15.02;;;8.02;;
52041;SDS011;38052;45.944;13.624;2023-02-11T03:25:11;12.90;;;8.68;;
52041;SDS011;38052;45.944;13.624;2023-02-11T03:27:42;15.23;;;8.35;;
52041;SDS011;38052;45.944;13.624;2023-02-11T03:30:19;15.00;;;8.90;;
52041;SDS011;38052;45.944;13.624;2023-02-11T03:32:51;14.40;;;8.45;;
52041;SDS011;38052;45.944;13.624;2023-02-11T03:35:23;13.82;;;8.38;;
52041;SDS011;38052;45.944;13.624;2023-02-11T03:37:56;13.20;;;8.07;;
52041;SDS011;38052;45.944;13.624;2023-02-11T03:40:26;13.65;;;7.75;;
52041;SDS011;38052;45.944;13.624;2023-02-11T03:42:57;13.25;;;8.57;;
52041;SDS011;38052;45.944;13.624;2023-02-11T03:45:24;14.63;;;9.23;;
52041;SDS011;38052;45.944;13.624;2023-02-11T03:48:11;16.38;;;9.43;;
52041;SDS011;38052;45.944;13.624;2023-02-11T03:50:39;14.02;;;9.10;;
52041;SDS011;38052;45.944;13.624;2023-02-11T03:53:06;15.98;;;8.38;;
52041;SDS011;38052;45.944;13.624;2023-02-11T03:55:35;23.70;;;9.43;;
52041;SDS011;38052;45.944;13.624;2023-02-11T03:58:01;14.07;;;8.20;;
52041;SDS011;38052;45.944;13.624;2023-02-11T04:00:32;15.57;;;7.93;;
52041;SDS011;38052;45.944;13.624;2023-02-11T04:02:58;12.68;;;7.72;;
52041;SDS011;38052;45.944;13.624;2023-02-11T04:05:25;13.32;;;8.15;;
52041;SDS011;38052;45.944;13.624;2023-02-11T04:07:51;15.77;;;9.32;;
52041;SDS011;38052;45.944;13.624;2023-02-11T04:10:18;14.05;;;8.35;;
52041;SDS011;38052;45.944;13.624;2023-02-11T04:12:45;16.20;;;9.65;;
52041;SDS011;38052;45.944;13.624;2023-02-11T04:15:11;15.63;;;8.48;;
52041;SDS011;38052;45.944;13.624;2023-02-11T04:17:38;14.73;;;8.82;;
52041;SDS011;38052;45.944;13.624;2023-02-11T04:20:04;12.40;;;8.07;;
52041;SDS011;38052;45.944;13.624;2023-02-11T04:22:31;15.48;;;8.88;;
52041;SDS011;38052;45.944;13.624;2023-02-11T04:24:59;13.32;;;8.93;;
52041;SDS011;38052;45.944;13.624;2023-02-11T04:27:25;15.32;;;8.40;;
52041;SDS011;38052;45.944;13.624;2023-02-11T04:29:52;17.30;;;8.80;;
52041;SDS011;38052;45.944;13.624;2023-02-11T04:32:19;14.70;;;8.95;;
52041;SDS011;38052;45.944;13.624;2023-02-11T04:34:45;15.82;;;9.73;;
52041;SDS011;38052;45.944;13.624;2023-02-11T04:37:12;14.98;;;9.27;;
52041;SDS011;38052;45.944;13.624;2023-02-11T04:39:39;16.63;;;8.65;;
52041;SDS011;38052;45.944;13.624;2023-02-11T04:42:05;12.77;;;7.88;;
52041;SDS011;38052;45.944;13.624;2023-02-11T04:44:32;16.63;;;8.85;;
52041;SDS011;38052;45.944;13.624;2023-02-11T04:46:58;16.58;;;8.85;;
52041;SDS011;38052;45.944;13.624;2023-02-11T04:49:25;16.63;;;10.27;;
52041;SDS011;38052;45.944;13.624;2023-02-11T04:51:51;13.63;;;8.55;;
52041;SDS011;38052;45.944;13.624;2023-02-11T04:54:17;19.77;;;9.63;;
52041;SDS011;38052;45.944;13.624;2023-02-11T04:56:44;17.63;;;9.38;;
52041;SDS011;38052;45.944;13.624;2023-02-11T04:59:10;18.80;;;10.45;;
52041;SDS011;38052;45.944;13.624;2023-02-11T05:01:37;22.13;;;12.60;;
52041;SDS011;38052;45.944;13.624;2023-02-11T05:04:03;16.40;;;9.10;;
52041;SDS011;38052;45.944;13.624;2023-02-11T05:06:30;14.15;;;8.05;;
52041;SDS011;38052;45.944;13.624;2023-02-11T05:08:56;13.77;;;8.02;;
52041;SDS011;38052;45.944;13.624;2023-02-11T05:11:23;13.50;;;8.55;;
52041;SDS011;38052;45.944;13.624;2023-02-11T05:13:49;15.55;;;9.55;;
52041;SDS011;38052;45.944;13.624;2023-02-11T05:16:16;15.43;;;7.80;;
52041;SDS011;38052;45.944;13.624;2023-02-11T05:18:43;15.93;;;8.95;;
52041;SDS011;38052;45.944;13.624;2023-02-11T05:21:10;18.55;;;9.73;;
52041;SDS011;38052;45.944;13.624;2023-02-11T05:23:38;16.65;;;8.90;;
52041;SDS011;38052;45.944;13.624;2023-02-11T05:26:04;19.25;;;10.13;;
52041;SDS011;38052;45.944;13.624;2023-02-11T05:28:31;14.30;;;8.90;;
52041;SDS011;38052;45.944;13.624;2023-02-11T05:30:57;13.35;;;9.38;;
52041;SDS011;38052;45.944;13.624;2023-02-11T05:33:24;17.00;;;9.00;;
52041;SDS011;38052;45.944;13.624;2023-02-11T05:35:50;16.17;;;11.77;;
52041;SDS011;38052;45.944;13.624;2023-02-11T05:38:17;24.30;;;11.35;;
52041;SDS011;38052;45.944;13.624;2023-02-11T05:40:43;17.08;;;9.35;;
52041;SDS011;38052;45.944;13.624;2023-02-11T05:43:09;15.73;;;9.20;;
52041;SDS011;38052;45.944;13.624;2023-02-11T05:45:36;17.42;;;10.65;;
52041;SDS011;38052;45.944;13.624;2023-02-11T05:48:02;18.73;;;13.15;;
52041;SDS011;38052;45.944;13.624;2023-02-11T05:50:29;20.02;;;10.07;;
52041;SDS011;38052;45.944;13.624;2023-02-11T05:52:55;12.38;;;7.40;;
52041;SDS011;38052;45.944;13.624;2023-02-11T05:55:22;17.10;;;9.85;;
52041;SDS011;38052;45.944;13.624;2023-02-11T05:57:48;15.90;;;10.27;;
52041;SDS011;38052;45.944;13.624;2023-02-11T06:00:15;15.32;;;9.35;;
52041;SDS011;38052;45.944;13.624;2023-02-11T06:02:42;16.52;;;8.70;;
52041;SDS011;38052;45.944;13.624;2023-02-11T06:05:08;14.00;;;9.60;;
52041;SDS011;38052;45.944;13.624;2023-02-11T06:07:34;15.65;;;9.38;;
52041;SDS011;38052;45.944;13.624;2023-02-11T06:10:01;17.85;;;11.73;;
52041;SDS011;38052;45.944;13.624;2023-02-11T06:12:27;16.30;;;9.63;;
52041;SDS011;38052;45.944;13.624;2023-02-11T06:14:54;19.60;;;9.85;;
52041;SDS011;38052;45.944;13.624;2023-02-11T06:17:20;15.55;;;10.18;;
52041;SDS011;38052;45.944;13.624;2023-02-11T06:19:47;13.95;;;9.40;;
52041;SDS011;38052;45.944;13.624;2023-02-11T06:22:14;14.43;;;9.30;;
52041;SDS011;38052;45.944;13.624;2023-02-11T06:24:40;17.40;;;10.85;;
52041;SDS011;38052;45.944;13.624;2023-02-11T06:27:07;21.35;;;10.45;;
52041;SDS011;38052;45.944;13.624;2023-02-11T06:29:33;17.55;;;9.35;;
52041;SDS011;38052;45.944;13.624;2023-02-11T06:31:59;25.30;;;10.93;;
52041;SDS011;38052;45.944;13.624;2023-02-11T06:34:26;16.95;;;10.23;;
52041;SDS011;38052;45.944;13.624;2023-02-11T06:36:52;21.88;;;9.23;;
52041;SDS011;38052;45.944;13.624;2023-02-11T06:39:19;16.90;;;9.23;;
52041;SDS011;38052;45.944;13.624;2023-02-11T06:41:45;14.30;;;8.45;;
52041;SDS011;38052;45.944;13.624;2023-02-11T06:44:13;16.58;;;10.80;;
52041;SDS011;38052;45.944;13.624;2023-02-11T06:46:39;15.73;;;9.93;;
52041;SDS011;38052;45.944;13.624;2023-02-11T06:49:05;18.35;;;11.45;;
52041;SDS011;38052;45.944;13.624;2023-02-11T06:51:32;17.48;;;9.70;;
52041;SDS011;38052;45.944;13.624;2023-02-11T06:53:59;17.02;;;10.20;;
52041;SDS011;38052;45.944;13.624;2023-02-11T06:56:25;17.17;;;9.60;;
52041;SDS011;38052;45.944;13.624;2023-02-11T06:58:52;16.00;;;10.02;;
52041;SDS011;38052;45.944;13.624;2023-02-11T07:01:22;15.65;;;9.25;;
52041;SDS011;38052;45.944;13.624;2023-02-11T07:03:49;14.70;;;9.43;;
52041;SDS011;38052;45.944;13.624;2023-02-11T07:06:16;18.90;;;9.43;;
52041;SDS011;38052;45.944;13.624;2023-02-11T07:08:44;16.25;;;9.25;;
52041;SDS011;38052;45.944;13.624;2023-02-11T07:11:11;26.70;;;10.85;;
52041;SDS011;38052;45.944;13.624;2023-02-11T07:13:38;16.90;;;9.48;;
52041;SDS011;38052;45.944;13.624;2023-02-11T07:16:05;17.48;;;9.93;;
52041;SDS011;38052;45.944;13.624;2023-02-11T07:18:31;16.27;;;10.55;;
52041;SDS011;38052;45.944;13.624;2023-02-11T07:20:58;19.40;;;10.30;;
52041;SDS011;38052;45.944;13.624;2023-02-11T07:23:24;20.65;;;9.80;;
52041;SDS011;38052;45.944;13.624;2023-02-11T07:25:51;20.00;;;10.77;;
52041;SDS011;38052;45.944;13.624;2023-02-11T07:28:17;21.77;;;11.05;;
52041;SDS011;38052;45.944;13.624;2023-02-11T07:30:44;21.30;;;10.90;;
52041;SDS011;38052;45.944;13.624;2023-02-11T07:33:10;17.90;;;11.00;;
52041;SDS011;38052;45.944;13.624;2023-02-11T07:35:37;18.48;;;9.75;;
52041;SDS011;38052;45.944;13.624;2023-02-11T07:38:04;19.75;;;9.98;;
52041;SDS011;38052;45.944;13.624;2023-02-11T07:40:30;16.08;;;9.60;;
52041;SDS011;38052;45.944;13.624;2023-02-11T07:42:57;17.98;;;9.48;;
52041;SDS011;38052;45.944;13.624;2023-02-11T07:45:23;16.73;;;9.13;;
52041;SDS011;38052;45.944;13.624;2023-02-11T07:47:49;15.77;;;9.10;;
52041;SDS011;38052;45.944;13.624;2023-02-11T07:50:16;17.15;;;9.68;;
52041;SDS011;38052;45.944;13.624;2023-02-11T07:52:42;13.63;;;8.02;;
52041;SDS011;38052;45.944;13.624;2023-02-11T07:55:08;15.65;;;8.73;;
52041;SDS011;38052;45.944;13.624;2023-02-11T07:57:35;13.68;;;8.65;;
52041;SDS011;38052;45.944;13.624;2023-02-11T08:00:02;12.40;;;8.35;;
52041;SDS011;38052;45.944;13.624;2023-02-11T08:02:29;17.13;;;8.73;;
52041;SDS011;38052;45.944;13.624;2023-02-11T08:04:56;14.63;;;8.77;;
52041;SDS011;38052;45.944;13.624;2023-02-11T08:07:22;13.15;;;8.63;;
52041;SDS011;38052;45.944;13.624;2023-02-11T08:09:48;15.70;;;8.27;;
52041;SDS011;38052;45.944;13.624;2023-02-11T08:12:15;13.77;;;8.63;;
52041;SDS011;38052;45.944;13.624;2023-02-11T08:14:41;14.18;;;7.95;;
52041;SDS011;38052;45.944;13.624;2023-02-11T08:17:08;14.45;;;7.80;;
52041;SDS011;38052;45.944;13.624;2023-02-11T08:19:35;14.40;;;8.68;;
52041;SDS011;38052;45.944;13.624;2023-02-11T08:22:01;16.15;;;9.55;;
52041;SDS011;38052;45.944;13.624;2023-02-11T08:24:27;21.75;;;9.57;;
52041;SDS011;38052;45.944;13.624;2023-02-11T08:26:54;15.05;;;7.70;;
52041;SDS011;38052;45.944;13.624;2023-02-11T08:29:20;15.70;;;9.05;;
52041;SDS011;38052;45.944;13.624;2023-02-11T08:31:47;16.25;;;8.65;;
52041;SDS011;38052;45.944;13.624;2023-02-11T08:34:14;18.13;;;8.98;;
52041;SDS011;38052;45.944;13.624;2023-02-11T08:36:43;14.02;;;8.50;;
52041;SDS011;38052;45.944;13.624;2023-02-11T08:39:17;13.43;;;8.70;;
52041;SDS011;38052;45.944;13.624;2023-02-11T08:41:43;14.85;;;9.38;;
52041;SDS011;38052;45.944;13.624;2023-02-11T08:44:10;19.17;;;10.65;;
52041;SDS011;38052;45.944;13.624;2023-02-11T08:46:37;15.85;;;9.02;;
52041;SDS011;38052;45.944;13.624;2023-02-11T08:49:03;15.80;;;9.25;;
52041;SDS011;38052;45.944;13.624;2023-02-11T08:51:31;14.75;;;8.82;;
52041;SDS011;38052;45.944;13.624;2023-02-11T08:53:58;13.20;;;8.48;;
52041;SDS011;38052;45.944;13.624;2023-02-11T08:56:24;13.02;;;8.70;;
52041;SDS011;38052;45.944;13.624;2023-02-11T08:58:51;13.75;;;8.00;;
52041;SDS011;38052;45.944;13.624;2023-02-11T09:01:21;13.25;;;8.07;;
52041;SDS011;38052;45.944;13.624;2023-02-11T09:03:47;11.67;;;7.50;;
52041;SDS011;38052;45.944;13.624;2023-02-11T09:06:14;14.38;;;8.15;;
52041;SDS011;38052;45.944;13.624;2023-02-11T09:08:43;12.00;;;6.28;;
52041;SDS011;38052;45.944;13.624;2023-02-11T09:11:09;19.27;;;8.23;;
52041;SDS011;38052;45.944;13.624;2023-02-11T09:13:36;12.27;;;7.35;;
52041;SDS011;38052;45.944;13.624;2023-02-11T09:16:03;16.40;;;8.45;;
52041;SDS011;38052;45.944;13.624;2023-02-11T09:18:30;15.00;;;8.27;;
52041;SDS011;38052;45.944;13.624;2023-02-11T09:21:03;12.30;;;7.45;;
52041;SDS011;38052;45.944;13.624;2023-02-11T09:23:30;11.25;;;7.57;;
52041;SDS011;38052;45.944;13.624;2023-02-11T09:25:59;13.68;;;7.85;;
52041;SDS011;38052;45.944;13.624;2023-02-11T09:28:25;11.93;;;7.88;;
52041;SDS011;38052;45.944;13.624;2023-02-11T09:30:51;13.68;;;8.32;;
52041;SDS011;38052;45.944;13.624;2023-02-11T09:33:18;11.05;;;8.00;;
52041;SDS011;38052;45.944;13.624;2023-02-11T09:35:44;13.88;;;8.50;;
52041;SDS011;38052;45.944;13.624;2023-02-11T09:38:11;16.42;;;7.82;;
52041;SDS011;38052;45.944;13.624;2023-02-11T09:40:42;11.23;;;8.00;;
52041;SDS011;38052;45.944;13.624;2023-02-11T09:43:21;12.52;;;7.68;;
52041;SDS011;38052;45.944;13.624;2023-02-11T09:45:48;14.70;;;7.88;;
52041;SDS011;38052;45.944;13.624;2023-02-11T09:48:19;14.63;;;7.88;;
52041;SDS011;38052;45.944;13.624;2023-02-11T09:50:50;13.18;;;7.82;;
52041;SDS011;38052;45.944;13.624;2023-02-11T09:53:23;13.38;;;8.73;;
52041;SDS011;38052;45.944;13.624;2023-02-11T09:55:53;12.25;;;7.53;;
52041;SDS011;38052;45.944;13.624;2023-02-11T09:58:26;11.95;;;7.57;;
52041;SDS011;38052;45.944;13.624;2023-02-11T10:10:51;12.10;;;8.18;;
52041;SDS011;38052;45.944;13.624;2023-02-11T10:18:27;13.10;;;7.85;;
52041;SDS011;38052;45.944;13.624;2023-02-11T10:21:13;11.48;;;7.45;;
52041;SDS011;38052;45.944;13.624;2023-02-11T10:23:41;18.75;;;10.05;;
52041;SDS011;38052;45.944;13.624;2023-02-11T10:26:13;13.02;;;7.53;;
52041;SDS011;38052;45.944;13.624;2023-02-11T10:28:41;11.40;;;7.85;;
52041;SDS011;38052;45.944;13.624;2023-02-11T10:31:33;16.55;;;7.70;;
52041;SDS011;38052;45.944;13.624;2023-02-11T10:33:59;13.85;;;7.93;;
52041;SDS011;38052;45.944;13.624;2023-02-11T10:36:31;13.25;;;8.80;;
52041;SDS011;38052;45.944;13.624;2023-02-11T10:38:59;13.23;;;8.02;;
52041;SDS011;38052;45.944;13.624;2023-02-11T10:41:27;18.13;;;7.28;;
52041;SDS011;38052;45.944;13.624;2023-02-11T10:43:57;14.30;;;8.30;;
52041;SDS011;38052;45.944;13.624;2023-02-11T10:46:25;12.10;;;7.07;;
52041;SDS011;38052;45.944;13.624;2023-02-11T10:48:54;11.27;;;8.00;;
52041;SDS011;38052;45.944;13.624;2023-02-11T10:51:38;13.70;;;9.52;;
52041;SDS011;38052;45.944;13.624;2023-02-11T10:56:35;14.45;;;8.75;;
52041;SDS011;38052;45.944;13.624;2023-02-11T11:04:43;12.93;;;9.13;;
52041;SDS011;38052;45.944;13.624;2023-02-11T11:07:20;12.35;;;8.38;;
52041;SDS011;38052;45.944;13.624;2023-02-11T11:09:50;12.82;;;7.85;;
52041;SDS011;38052;45.944;13.624;2023-02-11T11:12:24;15.93;;;8.77;;
52041;SDS011;38052;45.944;13.624;2023-02-11T11:14:54;11.95;;;8.18;;
52041;SDS011;38052;45.944;13.624;2023-02-11T11:17:21;13.32;;;9.02;;
52041;SDS011;38052;45.944;13.624;2023-02-11T11:19:47;13.13;;;7.40;;
52041;SDS011;38052;45.944;13.624;2023-02-11T11:22:20;14.85;;;9.27;;
52041;SDS011;38052;45.944;13.624;2023-02-11T11:24:47;15.90;;;8.73;;
52041;SDS011;38052;45.944;13.624;2023-02-11T11:29:45;16.58;;;8.15;;
52041;SDS011;38052;45.944;13.624;2023-02-11T11:32:15;12.95;;;8.45;;
52041;SDS011;38052;45.944;13.624;2023-02-11T11:34:47;14.85;;;9.23;;
52041;SDS011;38052;45.944;13.624;2023-02-11T11:37:27;11.95;;;8.27;;
52041;SDS011;38052;45.944;13.624;2023-02-11T11:42:28;12.88;;;8.63;;
52041;SDS011;38052;45.944;13.624;2023-02-11T11:44:59;15.98;;;9.90;;
52041;SDS011;38052;45.944;13.624;2023-02-11T11:50:46;14.93;;;10.68;;
52041;SDS011;38052;45.944;13.624;2023-02-11T11:52:49;16.00;;;9.35;;
52041;SDS011;38052;45.944;13.624;2023-02-11T11:55:19;13.98;;;9.73;;
52041;SDS011;38052;45.944;13.624;2023-02-11T11:57:47;14.95;;;9.00;;
52041;SDS011;38052;45.944;13.624;2023-02-11T12:00:21;13.98;;;8.18;;
52041;SDS011;38052;45.944;13.624;2023-02-11T12:05:35;15.57;;;8.52;;
52041;SDS011;38052;45.944;13.624;2023-02-11T12:08:13;14.05;;;7.35;;
52041;SDS011;38052;45.944;13.624;2023-02-11T12:13:25;13.23;;;8.05;;
52041;SDS011;38052;45.944;13.624;2023-02-11T12:21:24;11.98;;;7.82;;
52041;SDS011;38052;45.944;13.624;2023-02-11T12:26:48;12.02;;;6.50;;
52041;SDS011;38052;45.944;13.624;2023-02-11T12:40:21;11.98;;;7.90;;
52041;SDS011;38052;45.944;13.624;2023-02-11T12:42:59;11.77;;;7.97;;
52041;SDS011;38052;45.944;13.624;2023-02-11T12:51:00;10.80;;;7.00;;
52041;SDS011;38052;45.944;13.624;2023-02-11T12:56:01;11.60;;;7.25;;
52041;SDS011;38052;45.944;13.624;2023-02-11T12:58:30;13.13;;;8.23;;
52041;SDS011;38052;45.944;13.624;2023-02-11T13:01:05;11.98;;;7.70;;
52041;SDS011;38052;45.944;13.624;2023-02-11T13:03:38;10.77;;;7.63;;
52041;SDS011;38052;45.944;13.624;2023-02-11T13:06:06;10.63;;;7.43;;
52041;SDS011;38052;45.944;13.624;2023-02-11T13:11:07;17.02;;;7.95;;
52041;SDS011;38052;45.944;13.624;2023-02-11T13:13:46;10.05;;;6.45;;
52041;SDS011;38052;45.944;13.624;2023-02-11T13:18:46;9.00;;;5.45;;
52041;SDS011;38052;45.944;13.624;2023-02-11T13:21:18;7.97;;;5.20;;
52041;SDS011;38052;45.944;13.624;2023-02-11T13:23:53;9.63;;;6.13;;
52041;SDS011;38052;45.944;13.624;2023-02-11T13:31:41;7.05;;;4.85;;
52041;SDS011;38052;45.944;13.624;2023-02-11T13:34:24;7.57;;;5.15;;
52041;SDS011;38052;45.944;13.624;2023-02-11T13:36:53;8.48;;;5.53;;
52041;SDS011;38052;45.944;13.624;2023-02-11T13:39:19;7.20;;;4.47;;
52041;SDS011;38052;45.944;13.624;2023-02-11T13:41:46;8.63;;;5.70;;
52041;SDS011;38052;45.944;13.624;2023-02-11T13:49:18;7.57;;;5.95;;
52041;SDS011;38052;45.944;13.624;2023-02-11T13:51:46;9.65;;;6.43;;
52041;SDS011;38052;45.944;13.624;2023-02-11T13:54:32;9.93;;;6.70;;
52041;SDS011;38052;45.944;13.624;2023-02-11T13:59:45;8.30;;;5.60;;
52041;SDS011;38052;45.944;13.624;2023-02-11T14:05:19;9.10;;;6.00;;
52041;SDS011;38052;45.944;13.624;2023-02-11T14:16:15;9.70;;;5.30;;
52041;SDS011;38052;45.944;13.624;2023-02-11T14:21:21;7.93;;;5.78;;
52041;SDS011;38052;45.944;13.624;2023-02-11T14:23:47;9.07;;;7.22;;
52041;SDS011;38052;45.944;13.624;2023-02-11T14:28:47;10.85;;;6.47;;
52041;SDS011;38052;45.944;13.624;2023-02-11T14:31:58;13.40;;;6.68;;
52041;SDS011;38052;45.944;13.624;2023-02-11T14:34:07;11.45;;;7.32;;
52041;SDS011;38052;45.944;13.624;2023-02-11T14:39:18;12.07;;;7.28;;
52041;SDS011;38052;45.944;13.624;2023-02-11T14:41:46;12.07;;;7.70;;
52041;SDS011;38052;45.944;13.624;2023-02-11T14:44:35;12.13;;;7.63;;
52041;SDS011;38052;45.944;13.624;2023-02-11T14:47:01;9.45;;;6.93;;
52041;SDS011;38052;45.944;13.624;2023-02-11T14:49:35;12.35;;;8.35;;
52041;SDS011;38052;45.944;13.624;2023-02-11T14:52:10;12.95;;;8.45;;
52041;SDS011;38052;45.944;13.624;2023-02-11T14:54:41;11.57;;;7.30;;
52041;SDS011;38052;45.944;13.624;2023-02-11T14:57:15;10.50;;;7.32;;
52041;SDS011;38052;45.944;13.624;2023-02-11T14:59:57;14.07;;;7.70;;
52041;SDS011;38052;45.944;13.624;2023-02-11T15:02:31;11.23;;;8.05;;
52041;SDS011;38052;45.944;13.624;2023-02-11T15:07:57;10.75;;;6.95;;
52041;SDS011;38052;45.944;13.624;2023-02-11T15:10:30;12.32;;;7.22;;
52041;SDS011;38052;45.944;13.624;2023-02-11T15:12:57;13.65;;;8.23;;
52041;SDS011;38052;45.944;13.624;2023-02-11T15:15:25;12.80;;;7.70;;
52041;SDS011;38052;45.944;13.624;2023-02-11T15:17:51;9.48;;;7.20;;
52041;SDS011;38052;45.944;13.624;2023-02-11T15:20:19;11.93;;;8.35;;
52041;SDS011;38052;45.944;13.624;2023-02-11T15:22:47;12.25;;;7.15;;
52041;SDS011;38052;45.944;13.624;2023-02-11T15:25:16;10.50;;;6.97;;
52041;SDS011;38052;45.944;13.624;2023-02-11T15:27:46;9.30;;;6.43;;
52041;SDS011;38052;45.944;13.624;2023-02-11T15:32:48;10.27;;;6.45;;
52041;SDS011;38052;45.944;13.624;2023-02-11T15:35:15;11.20;;;6.45;;
52041;SDS011;38052;45.944;13.624;2023-02-11T15:37:42;13.18;;;6.97;;
52041;SDS011;38052;45.944;13.624;2023-02-11T15:40:10;12.38;;;6.65;;
52041;SDS011;38052;45.944;13.624;2023-02-11T15:42:37;10.98;;;7.07;;
52041;SDS011;38052;45.944;13.624;2023-02-11T15:47:33;10.60;;;6.63;;
52041;SDS011;38052;45.944;13.624;2023-02-11T15:50:00;11.48;;;7.22;;
52041;SDS011;38052;45.944;13.624;2023-02-11T15:52:27;11.85;;;7.05;;
52041;SDS011;38052;45.944;13.624;2023-02-11T15:54:55;13.13;;;7.45;;
52041;SDS011;38052;45.944;13.624;2023-02-11T15:57:22;14.52;;;6.82;;
52041;SDS011;38052;45.944;13.624;2023-02-11T15:59:49;11.45;;;6.72;;
52041;SDS011;38052;45.944;13.624;2023-02-11T16:12:58;18.63;;;9.90;;
52041;SDS011;38052;45.944;13.624;2023-02-11T16:15:27;15.43;;;9.38;;
52041;SDS011;38052;45.944;13.624;2023-02-11T16:17:54;14.73;;;9.13;;
52041;SDS011;38052;45.944;13.624;2023-02-11T16:20:20;16.55;;;10.20;;
52041;SDS011;38052;45.944;13.624;2023-02-11T16:22:47;16.63;;;10.23;;
52041;SDS011;38052;45.944;13.624;2023-02-11T16:25:17;14.23;;;8.50;;
52041;SDS011;38052;45.944;13.624;2023-02-11T16:27:47;20.52;;;10.25;;
52041;SDS011;38052;45.944;13.624;2023-02-11T16:30:33;17.85;;;10.13;;
52041;SDS011;38052;45.944;13.624;2023-02-11T16:33:01;17.00;;;10.43;;
52041;SDS011;38052;45.944;13.624;2023-02-11T16:35:28;19.55;;;10.70;;
52041;SDS011;38052;45.944;13.624;2023-02-11T16:37:54;18.48;;;10.80;;
52041;SDS011;38052;45.944;13.624;2023-02-11T16:40:21;14.70;;;9.77;;
52041;SDS011;38052;45.944;13.624;2023-02-11T16:42:47;18.65;;;11.02;;
52041;SDS011;38052;45.944;13.624;2023-02-11T16:45:14;23.58;;;12.90;;
52041;SDS011;38052;45.944;13.624;2023-02-11T16:47:41;19.65;;;13.13;;
52041;SDS011;38052;45.944;13.624;2023-02-11T16:50:08;16.92;;;10.88;;
52041;SDS011;38052;45.944;13.624;2023-02-11T16:52:35;19.92;;;12.68;;
52041;SDS011;38052;45.944;13.624;2023-02-11T16:55:02;21.13;;;12.30;;